Kalaheo, HI

2:43 PM HST on February 12, 2016 (GMT -1000)
Lawai Hillsides | | Change Station
CLOSE
Current Station
Personal Weather Station
Location: Kalaheo, HI
Elevation: 531 ft
Nearby Weather Stations
Active Advisory: High Surf Advisory

Elev 531 ft 21.92 °N, 159.51 °W | Updated 8 seconds ago

Clear
Clear
83.8 °F
Feels Like 86 °F
N
0.0
Wind Variable Wind from SSW

Today
High -- | Low -- °F
--% Chance of Precip.
Yesterday
High -- | Low -- °F
Precip. -- in
Pressure 30.01 in
Visibility 10.0 miles
Clouds Clear
Heat Index 86 °F
Dew Point 66 °F
Humidity 56%
Rainfall 0.00 in
Snow Depth Not available.
7:11 AM 6:33 PM
Waxing Crescent, 25% visible
METAR PHLI 122353Z 10006KT 10SM CLR 27/18 A3001 RMK AO2 SLP160 60000 T02670183 10272 20239 58018
Pressure 30.01 in
Visibility 10.0 miles
Clouds Clear
Heat Index 86 °F
Dew Point 66 °F
Humidity 56%
Rainfall 0.00 in
Snow Depth Not available.
7:11 AM 6:33 PM
Waxing Crescent, 25% visible
METAR PHLI 122353Z 10006KT 10SM CLR 27/18 A3001 RMK AO2 SLP160 60000 T02670183 10272 20239 58018

10-Day Weather Forecast

Almanac

Astronomy

Feb. 12, 2016 Rise Set
Actual Time
Civil Twilight
Nautical Twilight
Astronomical Twilight
Moon
Length of Visible Light
Length of Day
Tomorrow will be .
, % of the Moon is Illuminated

Today's Extremes

State Highs State Lows

Community

WunderPhotos

Upload Photos

1,892,444 photos uploaded!

WunderBlog® & News

Nearby

Air Quality

  Air Quality AQ Index Pollutant
Not available.

Snow Depth

Station Depth Elevation

Earthquake Activity

City Distance Mag. Time & Date
Minimum magnitude displayed is 2.5.

Coastal Water Temperatures

Place Temperature

Stations

Nearby Weather Stations

Station Location Temp. Windchill Dew Point Humidity Wind Precip. Elev Updated Type
                   

Watches & Warnings

High Surf Advisory
Issued: 3:37 AM HST Feb. 12, 2016 – National Weather Service

... High surf advisory in effect until 6 PM HST this evening...
... High surf warning is cancelled...

The National Weather Service in Honolulu has issued a high surf
advisory... which is in effect until 6 PM HST this evening. The
high surf warning has been cancelled.

* Surf... along north and west facing shores of Niihau and Kauai
and north facing shores of Oahu Molokai and Maui... 16 to 22 feet
this morning... decreasing to 12 to 16 feet this afternoon. Along
west facing shores of Oahu and Molokai... 10 to 15 feet this
morning... decreasing to 8 to 12 feet this afternoon. Surf is
expected to diminish to below advisory levels this evening.

* Timing... through 6 PM HST.

* Impacts... moderate... expect strong breaking waves... shore
break... and strong longshore and rip currents making swimming
difficult and dangerous.

Precautionary/preparedness actions...

Beachgoers... swimmers... and surfers should heed all advice given
by ocean safety officials and exercise caution. Know your
limits... when in doubt... do not go out.